KSMN

Lemhi County Airport

Salmon, Idaho, USA
METAR KSMN 141656Z AUTO 00000KT 10SM CLR M13/M15 A3034 RMK AO2 SLP357 T11281150 FZRANO
Observed Flight Rules
Dec-14 @ 16:56 UTC (8 minutes ago) Visual Flight Rules
Visibility Clouds
10 miles
  • Clear skies
Temperatures Readings
Current -13°C / 9°F
Dewpoint -15°C / 5°F
Humidity 85%
Altimeter 30.34" Hg
Pressure 1035.7 hPa
Elevation 1233
METAR KSMN 141656Z AUTO 00000KT 10SM CLR M13/M15 A3034 RMK AO2 SLP357 T11281150 FZRANO
Observed Flight Rules
Dec-14 @ 16:56 UTC
(8 minutes ago)
VFR
Clouds
  • Clear skies
Temperature Dewpoint
-13°C / 9°F -15°C / 5°F
Humidity Altimeter Pressure
85% 30.34" Hg 1035.7 hPa